createdAt,value
2017-11-07T00:01:15.157Z,18.50
2017-11-07T00:03:41.877Z,13.53
2017-11-07T00:06:08.635Z,16.40
2017-11-07T00:08:35.426Z,17.50
2017-11-07T00:11:02.176Z,16.03
2017-11-07T00:13:28.910Z,18.07
2017-11-07T00:15:55.632Z,17.40
2017-11-07T00:18:22.447Z,20.23
2017-11-07T00:20:49.196Z,19.10
2017-11-07T00:23:15.913Z,19.43
2017-11-07T00:25:42.746Z,21.43
2017-11-07T00:28:09.477Z,20.37
2017-11-07T00:30:36.209Z,21.57
2017-11-07T00:33:03.029Z,19.00
2017-11-07T00:35:29.792Z,21.63
2017-11-07T00:37:56.535Z,18.97
2017-11-07T00:40:23.264Z,17.63
2017-11-07T00:42:50.015Z,17.23
2017-11-07T00:45:16.749Z,16.17
2017-11-07T00:47:43.495Z,18.20
2017-11-07T00:50:10.234Z,23.43
2017-11-07T00:52:36.973Z,21.40
2017-11-07T00:55:03.701Z,18.97
2017-11-07T00:57:30.437Z,17.87
2017-11-07T00:59:57.155Z,17.10
2017-11-07T01:02:23.944Z,18.37
2017-11-07T01:04:50.734Z,19.10
2017-11-07T01:07:17.498Z,19.07
2017-11-07T01:09:44.216Z,19.70
2017-11-07T01:12:11.018Z,20.00
2017-11-07T01:14:37.759Z,19.13
2017-11-07T01:17:04.510Z,21.30
2017-11-07T01:19:31.236Z,18.20
2017-11-07T01:21:57.973Z,17.33
2017-11-07T01:24:24.696Z,16.07
2017-11-07T01:26:51.420Z,15.77
2017-11-07T01:29:18.139Z,16.30
2017-11-07T01:31:44.878Z,16.40
2017-11-07T01:34:11.631Z,16.77
2017-11-07T01:36:38.440Z,16.00
2017-11-07T01:39:05.163Z,13.90
2017-11-07T01:41:31.927Z,17.07
2017-11-07T01:43:58.650Z,15.97
2017-11-07T01:46:25.484Z,12.53
2017-11-07T01:48:52.216Z,13.97
2017-11-07T01:51:18.965Z,19.23
2017-11-07T01:53:45.773Z,21.43
2017-11-07T01:56:12.505Z,14.27
2017-11-07T01:58:39.273Z,18.43
2017-11-07T02:01:06.015Z,16.67
2017-11-07T02:03:32.815Z,22.90
2017-11-07T02:05:59.548Z,18.67
2017-11-07T02:08:26.313Z,23.27
2017-11-07T02:10:53.036Z,16.20
2017-11-07T02:13:19.767Z,14.53
2017-11-07T02:15:46.505Z,15.90
2017-11-07T02:18:13.270Z,20.20
2017-11-07T02:20:40.055Z,17.17
2017-11-07T02:23:06.806Z,18.67
2017-11-07T02:25:33.555Z,17.93
2017-11-07T02:28:00.388Z,17.30
2017-11-07T02:30:27.157Z,17.60
2017-11-07T02:32:53.925Z,17.10
2017-11-07T02:35:20.685Z,17.93
2017-11-07T02:37:47.454Z,19.60
2017-11-07T02:40:14.205Z,24.27
2017-11-07T02:42:40.935Z,18.83
2017-11-07T02:45:07.671Z,20.00
2017-11-07T02:47:34.494Z,17.90
2017-11-07T02:50:01.224Z,19.10
2017-11-07T02:52:27.952Z,19.00
2017-11-07T02:54:54.706Z,18.73
2017-11-07T02:57:21.441Z,18.47
2017-11-07T02:59:48.220Z,19.40
2017-11-07T03:02:14.944Z,21.20
2017-11-07T03:04:41.686Z,17.23
2017-11-07T03:07:08.444Z,15.83
2017-11-07T03:09:35.166Z,19.63
2017-11-07T03:12:01.906Z,20.60
2017-11-07T03:14:28.637Z,18.50
2017-11-07T03:16:55.371Z,17.20
2017-11-07T03:19:22.113Z,18.37
2017-11-07T03:21:48.944Z,17.37
2017-11-07T03:24:15.666Z,17.00
2017-11-07T03:26:42.383Z,18.27
2017-11-07T03:29:09.235Z,17.97
2017-11-07T03:31:35.970Z,17.53
2017-11-07T03:34:02.692Z,17.20
2017-11-07T03:36:29.437Z,19.73
2017-11-07T03:38:56.182Z,16.33
2017-11-07T03:41:22.904Z,18.17
2017-11-07T03:43:49.695Z,17.40
2017-11-07T03:46:16.436Z,17.60
2017-11-07T03:48:43.181Z,17.13
2017-11-07T03:51:09.992Z,17.80
2017-11-07T03:53:36.741Z,16.03
2017-11-07T03:56:03.492Z,16.07
2017-11-07T03:58:30.316Z,18.33
2017-11-07T04:00:57.050Z,17.20
2017-11-07T04:03:23.796Z,17.00
2017-11-07T04:05:50.623Z,18.03
2017-11-07T04:08:17.378Z,19.40
2017-11-07T04:10:44.106Z,16.33
2017-11-07T04:13:10.854Z,18.13
2017-11-07T04:15:37.573Z,18.97
2017-11-07T04:18:04.301Z,17.83
2017-11-07T04:20:31.133Z,17.23
2017-11-07T04:22:57.932Z,15.67
2017-11-07T04:25:24.691Z,16.53
2017-11-07T04:27:51.431Z,17.93
2017-11-07T04:30:18.196Z,18.30
2017-11-07T04:32:44.934Z,16.33
2017-11-07T04:35:11.675Z,17.10
2017-11-07T04:37:38.493Z,15.63
2017-11-07T04:40:05.306Z,16.20
2017-11-07T04:42:32.060Z,15.80
2017-11-07T04:44:58.866Z,15.33
2017-11-07T04:47:25.598Z,14.53
2017-11-07T04:49:52.326Z,14.97
2017-11-07T04:52:19.055Z,15.07
2017-11-07T04:54:45.777Z,14.50
2017-11-07T04:57:12.593Z,16.57
2017-11-07T04:59:39.315Z,15.77
2017-11-07T05:02:06.048Z,15.27
2017-11-07T05:04:32.791Z,15.10
2017-11-07T05:06:59.529Z,13.87
2017-11-07T05:09:26.275Z,17.00
2017-11-07T05:11:53.018Z,16.37
2017-11-07T05:14:19.825Z,16.70
2017-11-07T05:16:46.547Z,16.77
2017-11-07T05:19:13.343Z,17.43
2017-11-07T05:21:40.083Z,14.23
2017-11-07T05:24:06.905Z,16.13
2017-11-07T05:26:33.638Z,14.53
2017-11-07T05:29:00.374Z,16.57
2017-11-07T05:31:27.095Z,17.13
2017-11-07T05:33:53.834Z,16.13
2017-11-07T05:36:20.578Z,15.87
2017-11-07T05:38:47.300Z,16.67
2017-11-07T05:41:14.065Z,15.57
2017-11-07T05:43:40.780Z,15.50
2017-11-07T05:46:07.573Z,15.60
2017-11-07T05:48:34.354Z,14.40
2017-11-07T05:51:01.130Z,18.47
2017-11-07T05:53:27.939Z,15.20
2017-11-07T05:55:54.728Z,15.30
2017-11-07T05:58:21.472Z,16.13
2017-11-07T06:00:48.233Z,18.30
2017-11-07T06:03:14.966Z,18.37
2017-11-07T06:05:41.683Z,17.63
2017-11-07T06:08:08.418Z,18.53
2017-11-07T06:10:35.132Z,16.60
2017-11-07T06:13:01.885Z,16.70
2017-11-07T06:15:28.638Z,18.80
2017-11-07T06:17:55.369Z,16.70
2017-11-07T06:20:22.175Z,17.33
2017-11-07T06:22:48.925Z,16.90
2017-11-07T06:25:15.668Z,15.20
2017-11-07T06:27:42.407Z,16.40
2017-11-07T06:30:09.147Z,19.03
2017-11-07T06:32:35.875Z,17.50
2017-11-07T06:35:02.634Z,20.40
2017-11-07T06:37:29.370Z,18.63
2017-11-07T06:39:56.139Z,18.50
2017-11-07T06:42:22.863Z,17.20
2017-11-07T06:44:49.615Z,18.60
2017-11-07T06:47:16.356Z,15.10
2017-11-07T06:49:43.091Z,16.77
2017-11-07T06:52:09.881Z,17.07
2017-11-07T06:54:36.606Z,15.50
2017-11-07T06:57:03.327Z,16.10
2017-11-07T06:59:30.054Z,14.33
2017-11-07T07:01:56.802Z,16.20
2017-11-07T07:04:23.526Z,16.87
2017-11-07T07:06:50.235Z,16.40
2017-11-07T07:09:16.968Z,14.93
2017-11-07T07:11:43.702Z,17.83
2017-11-07T07:14:10.411Z,14.93
2017-11-07T07:16:37.144Z,17.50
2017-11-07T07:19:03.870Z,14.33
2017-11-07T07:21:30.581Z,15.17
2017-11-07T07:23:57.293Z,17.30
2017-11-07T07:26:24.011Z,24.30
2017-11-07T07:28:50.763Z,17.33
2017-11-07T07:31:17.508Z,18.50
2017-11-07T07:33:44.234Z,18.20
2017-11-07T07:36:10.952Z,18.13
2017-11-07T07:38:37.671Z,18.97
2017-11-07T07:41:04.419Z,24.77
2017-11-07T07:43:31.141Z,20.50
2017-11-07T07:45:57.890Z,19.10
2017-11-07T07:50:57.906Z,18.47
2017-11-07T07:53:24.614Z,24.07
2017-11-07T07:55:51.347Z,18.63
2017-11-07T07:58:18.079Z,19.37
2017-11-07T08:00:44.803Z,23.33
2017-11-07T08:03:11.567Z,21.50
2017-11-07T08:05:38.360Z,20.87
2017-11-07T08:08:05.114Z,20.60
2017-11-07T08:10:31.854Z,19.47
2017-11-07T08:12:58.580Z,20.60
2017-11-07T08:15:25.358Z,23.10
2017-11-07T08:17:52.125Z,20.93
2017-11-07T08:20:18.879Z,26.93
2017-11-07T08:22:45.626Z,22.80
2017-11-07T08:25:12.381Z,20.37
2017-11-07T08:27:39.112Z,22.43
2017-11-07T08:30:05.838Z,22.90
2017-11-07T08:32:32.567Z,21.17
2017-11-07T08:34:59.309Z,20.67
2017-11-07T08:37:26.069Z,22.80
2017-11-07T08:39:52.798Z,20.33
2017-11-07T08:42:19.507Z,21.77
2017-11-07T08:44:46.221Z,21.53
2017-11-07T08:47:12.973Z,20.60
2017-11-07T08:49:39.731Z,23.40
2017-11-07T08:52:06.449Z,25.53
2017-11-07T08:54:33.175Z,22.43
2017-11-07T08:56:59.905Z,21.90
2017-11-07T08:59:26.612Z,24.10
2017-11-07T09:01:53.323Z,24.33
2017-11-07T09:04:20.040Z,21.73
2017-11-07T09:06:46.777Z,20.70
2017-11-07T09:09:13.522Z,25.20
2017-11-07T09:11:40.277Z,27.07
2017-11-07T09:14:07.014Z,20.90
2017-11-07T09:16:33.757Z,31.47
2017-11-07T09:19:00.526Z,27.57
2017-11-07T09:21:27.239Z,27.97
2017-11-07T09:23:53.961Z,27.33
2017-11-07T09:26:20.715Z,27.53
2017-11-07T09:28:47.442Z,22.60
2017-11-07T09:31:14.156Z,22.20
2017-11-07T09:33:40.907Z,22.73
2017-11-07T09:36:07.622Z,24.03
2017-11-07T09:38:34.336Z,22.13
2017-11-07T09:41:01.058Z,22.40
2017-11-07T09:43:27.776Z,23.60
2017-11-07T09:45:54.506Z,25.50
2017-11-07T09:48:21.246Z,23.13
2017-11-07T09:50:47.964Z,26.80
2017-11-07T09:53:14.676Z,23.40
2017-11-07T09:55:41.418Z,22.97
2017-11-07T09:58:08.128Z,23.70
2017-11-07T10:00:34.853Z,22.80
2017-11-07T10:03:01.588Z,21.53
2017-11-07T10:05:28.370Z,22.63
2017-11-07T10:07:55.089Z,21.07
2017-11-07T10:10:21.822Z,25.30
2017-11-07T10:12:48.554Z,22.27
2017-11-07T10:15:15.269Z,23.40
2017-11-07T10:17:42.005Z,23.97
2017-11-07T10:20:08.737Z,32.13
2017-11-07T10:22:35.454Z,23.60
2017-11-07T10:25:02.222Z,28.40
2017-11-07T10:27:28.968Z,23.57
2017-11-07T10:29:55.711Z,24.97
2017-11-07T10:32:22.484Z,27.17
2017-11-07T10:34:49.203Z,28.67
2017-11-07T10:37:15.921Z,29.00
2017-11-07T10:39:42.661Z,24.20
2017-11-07T10:42:09.395Z,23.63
2017-11-07T10:44:36.169Z,21.77
2017-11-07T10:47:02.937Z,26.77
2017-11-07T10:49:29.642Z,23.13
2017-11-07T10:51:56.374Z,24.00
2017-11-07T10:54:23.128Z,22.40
2017-11-07T10:56:49.922Z,26.30
2017-11-07T10:59:16.635Z,25.43
2017-11-07T11:01:43.402Z,21.73
2017-11-07T11:04:10.175Z,24.13
2017-11-07T11:06:36.897Z,23.97
2017-11-07T11:09:03.649Z,26.13
2017-11-07T11:11:30.375Z,19.30
2017-11-07T11:13:57.113Z,22.10
2017-11-07T11:16:23.860Z,25.87
2017-11-07T11:18:50.596Z,26.23
2017-11-07T11:21:17.318Z,23.77
2017-11-07T11:23:44.053Z,21.53
2017-11-07T11:26:10.775Z,24.93
2017-11-07T11:28:37.522Z,29.90
2017-11-07T11:31:04.274Z,22.50
2017-11-07T11:33:30.993Z,24.80
2017-11-07T11:35:57.733Z,27.17
2017-11-07T11:38:24.565Z,25.27
2017-11-07T11:40:51.294Z,22.60
2017-11-07T11:43:18.019Z,23.70
2017-11-07T11:45:44.752Z,25.43
2017-11-07T11:48:11.471Z,24.23
2017-11-07T11:50:38.183Z,23.60
2017-11-07T11:53:04.917Z,22.67
2017-11-07T11:55:31.633Z,29.50
2017-11-07T11:57:58.442Z,27.57
2017-11-07T12:00:25.195Z,22.57
2017-11-07T12:02:51.917Z,24.97
2017-11-07T12:05:18.657Z,22.83
2017-11-07T12:07:45.396Z,25.30
2017-11-07T12:10:12.126Z,25.23
2017-11-07T12:12:38.859Z,22.40
2017-11-07T12:15:05.616Z,24.70
2017-11-07T12:17:32.344Z,34.53
2017-11-07T12:19:59.074Z,52.43
2017-11-07T12:22:25.845Z,30.50
2017-11-07T12:24:52.615Z,27.83
2017-11-07T12:27:19.352Z,28.77
2017-11-07T12:29:46.139Z,27.20
2017-11-07T12:32:12.901Z,23.97
2017-11-07T12:34:39.617Z,26.27
2017-11-07T12:37:06.387Z,27.07
2017-11-07T12:39:33.140Z,27.40
2017-11-07T12:41:59.871Z,25.60
2017-11-07T12:44:26.611Z,27.80
2017-11-07T12:46:53.345Z,26.50
2017-11-07T12:49:20.058Z,29.37
2017-11-07T12:51:59.857Z,25.83
2017-11-07T12:54:26.581Z,24.83
2017-11-07T12:56:53.294Z,29.37
2017-11-07T12:59:20.039Z,25.73
2017-11-07T13:01:46.799Z,26.37
2017-11-07T13:04:13.540Z,28.63
2017-11-07T13:06:40.289Z,22.73
2017-11-07T13:09:07.008Z,23.03
2017-11-07T13:11:33.747Z,24.87
2017-11-07T13:14:00.469Z,23.53
2017-11-07T13:16:27.191Z,28.13
2017-11-07T13:18:53.953Z,30.13
2017-11-07T13:21:20.740Z,33.10
2017-11-07T13:23:47.460Z,29.30
2017-11-07T13:26:14.307Z,27.60
2017-11-07T13:28:41.049Z,26.47
2017-11-07T13:31:07.802Z,28.80
2017-11-07T13:33:34.532Z,33.57
2017-11-07T13:36:01.276Z,27.00
2017-11-07T13:38:27.979Z,24.17
2017-11-07T13:40:54.702Z,29.73
2017-11-07T13:43:21.497Z,27.70
2017-11-07T13:45:48.208Z,29.50
2017-11-07T13:48:14.926Z,31.87
2017-11-07T13:50:41.642Z,33.90
2017-11-07T13:53:08.366Z,27.50
2017-11-07T13:55:35.094Z,27.17
2017-11-07T13:58:01.809Z,28.13
2017-11-07T14:00:28.546Z,36.17
2017-11-07T14:02:55.357Z,38.10
2017-11-07T14:05:22.095Z,43.50
2017-11-07T14:07:48.827Z,32.93
2017-11-07T14:10:15.568Z,46.63
2017-11-07T14:12:42.304Z,31.20
2017-11-07T14:15:09.019Z,29.60
2017-11-07T14:17:35.771Z,30.60
2017-11-07T14:20:02.506Z,30.73
2017-11-07T14:22:29.225Z,28.73
2017-11-07T14:24:55.968Z,32.70
2017-11-07T14:27:22.693Z,35.43
2017-11-07T14:29:49.405Z,36.03
2017-11-07T14:32:16.130Z,25.17
2017-11-07T14:34:42.844Z,26.00
2017-11-07T14:37:09.552Z,34.40
2017-11-07T14:39:36.268Z,41.43
2017-11-07T14:42:03.003Z,33.83
2017-11-07T14:44:29.716Z,38.37
2017-11-07T14:46:56.441Z,34.90
2017-11-07T14:49:23.173Z,77.60
2017-11-07T14:51:49.893Z,47.67
2017-11-07T14:54:16.647Z,57.57
2017-11-07T14:56:43.367Z,44.20
2017-11-07T14:59:10.087Z,36.90
2017-11-07T15:01:36.805Z,29.27
2017-11-07T15:04:03.559Z,32.60
2017-11-07T15:06:30.289Z,34.27
2017-11-07T15:08:57.005Z,32.00
2017-11-07T15:11:23.736Z,31.27
2017-11-07T15:13:50.489Z,32.67
2017-11-07T15:16:17.203Z,31.37
2017-11-07T15:18:43.986Z,30.63
2017-11-07T15:21:10.691Z,34.57
2017-11-07T15:23:37.419Z,31.80
2017-11-07T15:26:04.172Z,34.20
2017-11-07T15:28:30.892Z,29.20
2017-11-07T15:30:57.651Z,33.67
2017-11-07T15:33:24.387Z,31.40
2017-11-07T15:35:51.125Z,32.70
2017-11-07T15:38:17.857Z,28.70
2017-11-07T15:40:44.569Z,28.73
2017-11-07T15:43:11.301Z,29.33
2017-11-07T15:45:38.015Z,30.20
2017-11-07T15:48:04.750Z,29.90
2017-11-07T15:50:31.473Z,29.70
2017-11-07T15:52:58.196Z,32.70
2017-11-07T15:55:24.923Z,34.63
2017-11-07T15:57:51.653Z,32.53
2017-11-07T16:00:18.382Z,29.37
2017-11-07T16:02:45.126Z,29.37
2017-11-07T16:05:11.845Z,31.30
2017-11-07T16:07:38.560Z,29.90
2017-11-07T16:10:05.299Z,32.63
2017-11-07T16:12:32.035Z,27.20
2017-11-07T16:14:58.789Z,30.00
2017-11-07T16:17:25.569Z,27.70
2017-11-07T16:19:52.312Z,28.10
2017-11-07T16:22:19.054Z,28.67
2017-11-07T16:24:45.773Z,27.47
2017-11-07T16:27:12.495Z,33.27
2017-11-07T16:29:39.229Z,28.60
2017-11-07T16:32:05.973Z,30.37
2017-11-07T16:34:32.708Z,30.70
2017-11-07T16:36:59.430Z,34.80
2017-11-07T16:39:26.180Z,35.13
2017-11-07T16:41:52.929Z,38.40
2017-11-07T16:44:19.666Z,35.57
2017-11-07T16:46:46.399Z,35.87
2017-11-07T16:49:13.136Z,37.30
2017-11-07T16:51:39.875Z,33.60
2017-11-07T16:54:06.605Z,37.83
2017-11-07T16:56:33.365Z,38.27
2017-11-07T16:59:00.217Z,41.40
2017-11-07T17:01:27.022Z,40.60
2017-11-07T17:03:53.748Z,35.87
2017-11-07T17:06:20.500Z,33.27
2017-11-07T17:08:47.267Z,29.20
2017-11-07T17:11:14.036Z,34.27
2017-11-07T17:13:40.764Z,30.57
2017-11-07T17:16:07.499Z,32.17
2017-11-07T17:18:34.232Z,34.90
2017-11-07T17:21:00.958Z,37.73
2017-11-07T17:23:27.718Z,36.23
2017-11-07T17:25:54.460Z,38.07
2017-11-07T17:28:21.202Z,46.00
2017-11-07T17:30:47.938Z,35.80
2017-11-07T17:33:14.643Z,39.00
2017-11-07T17:35:41.380Z,39.90
2017-11-07T17:38:08.132Z,33.93
2017-11-07T17:40:34.890Z,36.77
2017-11-07T17:43:01.623Z,35.50
2017-11-07T17:45:28.401Z,31.73
2017-11-07T17:47:55.189Z,37.20
2017-11-07T17:50:22.004Z,34.03
2017-11-07T17:52:48.771Z,35.53
2017-11-07T17:55:15.517Z,35.87
2017-11-07T17:57:42.280Z,35.87
2017-11-07T18:00:09.105Z,29.90
2017-11-07T18:02:35.863Z,34.27
2017-11-07T18:05:02.610Z,28.20
2017-11-07T18:07:29.459Z,35.57
2017-11-07T18:09:57.084Z,35.80
2017-11-07T18:12:23.813Z,33.23
2017-11-07T18:14:50.556Z,33.70
2017-11-07T18:17:17.322Z,30.93
2017-11-07T18:19:44.053Z,33.77
2017-11-07T18:22:10.796Z,33.83
2017-11-07T18:24:37.521Z,34.90
2017-11-07T18:27:04.249Z,35.37
2017-11-07T18:29:30.975Z,34.03
2017-11-07T18:31:57.714Z,36.37
2017-11-07T18:34:24.454Z,34.23
2017-11-07T18:36:51.180Z,31.20
2017-11-07T18:39:17.894Z,38.87
2017-11-07T18:41:44.634Z,36.40
2017-11-07T18:44:11.379Z,37.50
2017-11-07T18:46:38.122Z,32.30
2017-11-07T18:49:04.837Z,32.40
2017-11-07T18:51:31.565Z,31.43
2017-11-07T18:53:58.376Z,30.90
2017-11-07T18:56:25.103Z,31.43
2017-11-07T18:58:51.857Z,32.80
2017-11-07T19:01:18.706Z,33.03
2017-11-07T19:03:45.440Z,35.33
2017-11-07T19:06:12.162Z,31.63
2017-11-07T19:08:38.882Z,34.53
2017-11-07T19:11:05.604Z,36.20
2017-11-07T19:13:32.496Z,36.07
2017-11-07T19:15:59.231Z,34.53
2017-11-07T19:18:25.993Z,33.03
2017-11-07T19:20:52.717Z,32.97
2017-11-07T19:23:19.443Z,29.60
2017-11-07T19:25:46.192Z,36.07
2017-11-07T19:28:12.931Z,30.73
2017-11-07T19:30:39.789Z,35.13
2017-11-07T19:33:06.533Z,35.23
2017-11-07T19:35:33.278Z,31.50
2017-11-07T19:38:00.029Z,34.90
2017-11-07T19:40:26.812Z,35.13
2017-11-07T19:42:53.611Z,35.23
2017-11-07T19:45:20.336Z,38.90
2017-11-07T19:47:47.070Z,37.17
2017-11-07T19:50:13.815Z,39.50
2017-11-07T19:52:40.565Z,41.00
2017-11-07T19:55:07.306Z,35.90
2017-11-07T19:57:34.054Z,37.20
2017-11-07T20:00:00.801Z,39.60
2017-11-07T20:02:27.530Z,36.40
2017-11-07T20:04:54.279Z,42.43
2017-11-07T20:07:21.018Z,38.27
2017-11-07T20:09:47.762Z,43.30
2017-11-07T20:12:14.489Z,41.67
2017-11-07T20:14:41.243Z,40.83
2017-11-07T20:17:08.005Z,45.50
2017-11-07T20:19:34.757Z,44.60
2017-11-07T20:22:01.536Z,41.17
2017-11-07T20:24:28.276Z,43.83
2017-11-07T20:26:55.035Z,43.97
2017-11-07T20:29:21.755Z,41.60
2017-11-07T20:31:48.509Z,46.97
2017-11-07T20:34:15.309Z,44.10
2017-11-07T20:36:42.043Z,43.83
2017-11-07T20:39:08.776Z,43.00
2017-11-07T20:41:35.522Z,46.93
2017-11-07T20:44:02.266Z,47.90
2017-11-07T20:46:28.998Z,45.13
2017-11-07T20:48:55.751Z,45.30
2017-11-07T20:51:22.512Z,47.53
2017-11-07T20:53:49.271Z,45.03
2017-11-07T20:56:16.028Z,43.90
2017-11-07T20:58:42.777Z,45.83
2017-11-07T21:01:09.526Z,45.70
2017-11-07T21:03:36.286Z,42.23
2017-11-07T21:06:06.015Z,46.23
2017-11-07T21:08:33.072Z,48.23
2017-11-07T21:10:59.836Z,46.67
2017-11-07T21:13:26.598Z,45.27
2017-11-07T21:15:54.210Z,45.33
2017-11-07T21:18:20.932Z,42.17
2017-11-07T21:20:50.298Z,48.00
2017-11-07T21:23:18.695Z,46.53
2017-11-07T21:25:45.425Z,43.80
2017-11-07T21:28:12.165Z,44.30
2017-11-07T21:30:38.893Z,53.53
2017-11-07T21:33:05.650Z,44.57
2017-11-07T21:35:32.376Z,46.37
2017-11-07T21:37:59.117Z,48.50
2017-11-07T21:40:25.863Z,45.17
2017-11-07T21:42:52.641Z,42.73
2017-11-07T21:45:19.367Z,48.20
2017-11-07T21:47:46.115Z,46.93
2017-11-07T21:50:12.831Z,44.60
2017-11-07T21:52:39.974Z,47.60
2017-11-07T21:55:06.723Z,46.50
2017-11-07T21:57:33.452Z,43.17
2017-11-07T22:00:01.532Z,46.07
2017-11-07T22:02:28.799Z,45.20
2017-11-07T22:04:55.517Z,38.83
2017-11-07T22:07:22.284Z,48.83
2017-11-07T22:09:51.935Z,45.67
2017-11-07T22:12:18.662Z,43.63
2017-11-07T22:14:45.382Z,47.47
2017-11-07T22:17:12.118Z,47.83
2017-11-07T22:19:38.862Z,49.73
2017-11-07T22:22:05.607Z,43.90
2017-11-07T22:24:32.330Z,43.90
2017-11-07T22:26:59.051Z,47.37
2017-11-07T22:29:25.772Z,49.10
2017-11-07T22:31:52.499Z,48.70
2017-11-07T22:34:19.458Z,41.80
2017-11-07T22:36:46.198Z,45.57
2017-11-07T22:39:12.995Z,46.40
2017-11-07T22:41:39.716Z,49.77
2017-11-07T22:44:07.168Z,48.40
2017-11-07T22:46:34.105Z,46.80
2017-11-07T22:49:00.832Z,48.33
2017-11-07T22:51:27.560Z,48.23
2017-11-07T22:53:54.297Z,52.40
2017-11-07T22:56:21.016Z,48.07
2017-11-07T22:58:47.745Z,48.03
2017-11-07T23:01:14.469Z,51.90
2017-11-07T23:03:41.205Z,47.00
2017-11-07T23:06:07.927Z,48.90
2017-11-07T23:08:34.678Z,49.80
2017-11-07T23:11:01.401Z,48.20
2017-11-07T23:13:28.115Z,45.00
2017-11-07T23:15:54.854Z,51.23
2017-11-07T23:18:21.624Z,45.37
2017-11-07T23:20:48.343Z,41.90
2017-11-07T23:23:15.081Z,45.93
2017-11-07T23:25:41.810Z,48.60
2017-11-07T23:28:08.517Z,48.47
2017-11-07T23:30:35.243Z,52.20
2017-11-07T23:33:01.947Z,44.40
2017-11-07T23:35:28.659Z,50.70
2017-11-07T23:37:55.449Z,51.83
2017-11-07T23:40:22.162Z,40.63
2017-11-07T23:42:48.891Z,40.27
2017-11-07T23:45:15.605Z,36.33
2017-11-07T23:47:42.331Z,38.60
2017-11-07T23:50:09.043Z,40.57
2017-11-07T23:52:35.761Z,40.27
2017-11-07T23:55:02.505Z,39.57
2017-11-07T23:57:29.217Z,41.90
2017-11-07T23:59:55.927Z,44.40
